Time;durP1;ratioP1;P1;durP2;ratioP2;P2;SDS_P1;SDS_P2;PMS_P1;PMS_P2;Temp;Humidity;BMP_temperature;BMP_pressure;BME280_temperature;BME280_humidity;BME280_pressure;Samples;Min_cycle;Max_cycle;Signal;HPM_P1;HPM_P2
2023/05/20 00:01:59;;;;;;;8.97;4.43;;;14.50;1.00;;;;;;4970637;28;20212;-82
2023/05/20 00:04:25;;;;;;;9.37;4.37;;;14.60;1.00;;;;;;4970404;28;20185;-82
2023/05/20 00:06:50;;;;;;;7.83;4.17;;;14.60;1.00;;;;;;4970540;28;20179;-82
2023/05/20 00:09:16;;;;;;;8.47;4.70;;;14.60;1.00;;;;;;4970035;28;20223;-82
2023/05/20 00:11:42;;;;;;;9.00;4.03;;;14.60;1.00;;;;;;4939866;29;20181;-82
2023/05/20 00:14:08;;;;;;;8.83;4.70;;;14.60;1.00;;;;;;4963550;28;20165;-81
2023/05/20 00:16:34;;;;;;;9.97;4.20;;;14.60;1.00;;;;;;4995196;28;20173;-81
2023/05/20 00:18:59;;;;;;;6.50;4.07;;;14.60;1.00;;;;;;4983166;28;20329;-82
2023/05/20 00:21:25;;;;;;;8.37;4.10;;;14.60;1.00;;;;;;4946168;29;20232;-80
2023/05/20 00:23:57;;;;;;;9.20;4.70;;;14.60;1.00;;;;;;4939430;29;20244;-81
2023/05/20 00:26:25;;;;;;;8.17;4.00;;;14.50;1.00;;;;;;4939339;29;20170;-81
2023/05/20 00:28:55;;;;;;;7.87;4.50;;;14.50;1.00;;;;;;4970629;28;20222;-82
2023/05/20 00:31:26;;;;;;;6.50;3.90;;;14.50;1.00;;;;;;4970612;28;20244;-82
2023/05/20 00:33:54;;;;;;;7.53;4.47;;;14.50;1.00;;;;;;4987039;28;20240;-81
2023/05/20 00:36:20;;;;;;;8.33;4.47;;;14.40;1.00;;;;;;4989156;28;20172;-80
2023/05/20 00:38:46;;;;;;;8.73;4.30;;;14.40;1.00;;;;;;4962907;28;20196;-81
2023/05/20 00:41:14;;;;;;;7.63;4.27;;;14.40;1.00;;;;;;4976298;28;20176;-82
2023/05/20 00:43:40;;;;;;;10.13;4.40;;;14.30;1.00;;;;;;4938916;29;20259;-82
2023/05/20 00:46:06;;;;;;;7.30;3.83;;;14.30;1.00;;;;;;4969199;28;20588;-82
2023/05/20 00:48:40;;;;;;;8.33;4.40;;;14.20;1.00;;;;;;4938492;29;20567;-82
2023/05/20 00:51:06;;;;;;;7.43;4.27;;;14.10;1.00;;;;;;4969430;28;20580;-82
2023/05/20 00:53:34;;;;;;;13.17;5.43;;;14.00;1.00;;;;;;4938503;29;20175;-82
2023/05/20 00:56:00;;;;;;;9.20;4.57;;;14.00;1.00;;;;;;4937758;29;20165;-82
2023/05/20 00:58:26;;;;;;;11.23;4.93;;;14.00;1.00;;;;;;4937327;29;20184;-82
2023/05/20 01:00:52;;;;;;;7.47;4.20;;;14.00;1.00;;;;;;4969272;28;20180;-82
2023/05/20 01:03:18;;;;;;;7.47;4.10;;;14.00;1.00;;;;;;4969293;28;20198;-81
2023/05/20 01:05:44;;;;;;;7.40;4.43;;;13.90;1.00;;;;;;4969536;28;20257;-81
2023/05/20 01:08:10;;;;;;;6.23;4.33;;;13.80;1.00;;;;;;4947650;29;20235;-83
2023/05/20 01:10:41;;;;;;;7.37;4.50;;;13.80;1.00;;;;;;4979973;28;20183;-82
2023/05/20 01:13:13;;;;;;;7.80;4.90;;;13.80;1.00;;;;;;4972035;28;20542;-82
2023/05/20 01:15:40;;;;;;;7.27;4.50;;;13.80;1.00;;;;;;4969271;28;20175;-81
2023/05/20 01:18:09;;;;;;;7.53;4.20;;;13.70;1.00;;;;;;4937116;29;20226;-81
2023/05/20 01:20:36;;;;;;;6.60;4.13;;;13.70;1.00;;;;;;4969181;28;20184;-82
2023/05/20 01:23:03;;;;;;;6.90;4.50;;;13.60;1.00;;;;;;4969086;28;20544;-81
2023/05/20 01:25:28;;;;;;;9.23;5.00;;;13.60;1.00;;;;;;4968884;28;20209;-81
2023/05/20 01:27:59;;;;;;;6.87;5.00;;;13.60;1.00;;;;;;4969027;28;20258;-81
2023/05/20 01:30:37;;;;;;;8.73;4.53;;;13.60;1.00;;;;;;4937845;29;20175;-81
2023/05/20 01:33:11;;;;;;;10.40;4.87;;;13.50;1.00;;;;;;4969041;28;20271;-81
2023/05/20 01:35:39;;;;;;;6.80;4.90;;;13.50;1.00;;;;;;4968813;28;20271;-81
2023/05/20 01:38:06;;;;;;;9.03;5.73;;;13.50;1.00;;;;;;4968683;28;20238;-82
2023/05/20 01:40:33;;;;;;;8.97;6.23;;;13.40;1.00;;;;;;4968893;28;20662;-81
2023/05/20 01:43:01;;;;;;;10.03;7.13;;;13.30;1.00;;;;;;4937642;29;20180;-81
2023/05/20 01:45:27;;;;;;;8.70;5.53;;;13.30;1.00;;;;;;4968652;28;20184;-82
2023/05/20 01:47:53;;;;;;;8.47;5.60;;;13.20;1.00;;;;;;4937823;29;20209;-81
2023/05/20 01:50:18;;;;;;;11.63;5.33;;;13.20;1.00;;;;;;4968965;28;20180;-80
2023/05/20 01:52:44;;;;;;;8.57;4.90;;;13.20;1.00;;;;;;4968438;28;20189;-80
2023/05/20 01:55:10;;;;;;;9.17;5.23;;;13.10;1.00;;;;;;4968619;28;20647;-81
2023/05/20 01:57:36;;;;;;;11.43;5.57;;;13.10;1.00;;;;;;4967989;28;20184;-81
2023/05/20 02:00:01;;;;;;;9.27;5.17;;;13.10;1.00;;;;;;4968500;28;20178;-81
2023/05/20 02:02:27;;;;;;;10.73;5.13;;;13.10;1.00;;;;;;4937402;29;20190;-80
2023/05/20 02:04:53;;;;;;;8.17;4.80;;;13.00;1.00;;;;;;4937423;29;20259;-81
2023/05/20 02:07:19;;;;;;;9.23;4.90;;;13.00;1.00;;;;;;4967289;28;20174;-82
2023/05/20 02:09:45;;;;;;;9.10;5.50;;;13.00;1.00;;;;;;4967506;28;20669;-81
2023/05/20 02:12:15;;;;;;;8.17;5.00;;;13.00;1.00;;;;;;4937059;29;20166;-80
2023/05/20 02:14:45;;;;;;;8.57;5.20;;;13.00;1.00;;;;;;4937006;29;20698;-81
2023/05/20 02:17:15;;;;;;;7.83;5.00;;;13.00;1.00;;;;;;4937007;29;20514;-81
2023/05/20 02:19:41;;;;;;;6.50;4.80;;;12.90;1.00;;;;;;4967910;28;20194;-82
2023/05/20 02:22:07;;;;;;;8.20;4.63;;;12.90;1.00;;;;;;4967863;28;20173;-80
2023/05/20 02:24:32;;;;;;;6.33;4.50;;;13.00;1.00;;;;;;4967380;28;20181;-80
2023/05/20 02:26:58;;;;;;;8.00;5.23;;;12.90;1.00;;;;;;4937589;29;20187;-82
2023/05/20 02:29:24;;;;;;;9.57;4.87;;;12.90;1.00;;;;;;4935722;29;20246;-81
2023/05/20 02:31:50;;;;;;;7.17;4.50;;;12.90;1.00;;;;;;4967704;28;20607;-83
2023/05/20 02:34:17;;;;;;;8.23;4.70;;;12.90;1.00;;;;;;4967696;28;20264;-82
2023/05/20 02:36:43;;;;;;;6.17;4.67;;;12.90;1.00;;;;;;4936404;29;20251;-80
2023/05/20 02:39:09;;;;;;;6.63;4.50;;;12.90;1.00;;;;;;4967263;28;20220;-83
2023/05/20 02:41:35;;;;;;;6.37;4.40;;;12.90;1.00;;;;;;4936910;29;20165;-81
2023/05/20 02:44:00;;;;;;;7.73;4.50;;;12.80;1.00;;;;;;4936536;29;20181;-81
2023/05/20 02:46:26;;;;;;;7.70;3.87;;;12.80;1.00;;;;;;4967424;28;20206;-82
2023/05/20 02:48:52;;;;;;;7.63;4.30;;;12.80;1.00;;;;;;4989920;28;20217;-79
2023/05/20 02:51:17;;;;;;;7.37;4.40;;;12.80;1.00;;;;;;4978671;28;20674;-81
2023/05/20 02:53:43;;;;;;;10.00;4.47;;;12.70;1.00;;;;;;4937307;29;20177;-81
2023/05/20 02:56:10;;;;;;;7.77;4.60;;;12.70;1.00;;;;;;4967426;28;20173;-81
2023/05/20 02:58:36;;;;;;;7.83;4.17;;;12.70;1.00;;;;;;4967433;28;20171;-81
2023/05/20 03:01:02;;;;;;;7.93;4.17;;;12.70;1.00;;;;;;4936608;29;20229;-82
2023/05/20 03:03:28;;;;;;;8.67;4.43;;;12.60;1.00;;;;;;4936317;29;20273;-81
2023/05/20 03:05:54;;;;;;;9.13;4.50;;;12.60;1.00;;;;;;4936475;29;20178;-81
2023/05/20 03:08:21;;;;;;;6.17;3.97;;;12.60;1.00;;;;;;4975165;28;20245;-81
2023/05/20 03:10:47;;;;;;;7.87;4.30;;;12.50;1.00;;;;;;4960795;28;20271;-80
2023/05/20 03:13:14;;;;;;;8.70;4.57;;;12.60;1.00;;;;;;4958338;28;20178;-80
2023/05/20 03:15:41;;;;;;;7.53;4.13;;;12.50;1.00;;;;;;4986258;28;20178;-82
2023/05/20 03:18:07;;;;;;;7.80;4.30;;;12.50;1.00;;;;;;4968968;28;20340;-80
2023/05/20 03:20:37;;;;;;;6.10;3.93;;;12.50;1.00;;;;;;4966575;28;20583;-80
2023/05/20 03:23:03;;;;;;;10.60;4.63;;;12.50;1.00;;;;;;4966864;28;20647;-80
2023/05/20 03:25:30;;;;;;;8.37;4.20;;;12.40;1.00;;;;;;4967114;28;20546;-82
2023/05/20 03:27:58;;;;;;;9.33;4.23;;;12.40;1.00;;;;;;4966629;28;20216;-81
2023/05/20 03:30:24;;;;;;;9.23;4.77;;;12.40;1.00;;;;;;4966708;28;20203;-82
2023/05/20 03:32:50;;;;;;;7.17;4.17;;;12.40;1.00;;;;;;4935626;29;20169;-81
2023/05/20 03:35:16;;;;;;;8.60;4.30;;;12.30;1.00;;;;;;4966423;28;20189;-82
2023/05/20 03:37:41;;;;;;;6.73;4.60;;;12.30;1.00;;;;;;4966685;28;20180;-81
2023/05/20 03:40:11;;;;;;;8.20;4.87;;;12.30;1.00;;;;;;4935731;29;20179;-81
2023/05/20 03:42:37;;;;;;;7.30;4.83;;;12.20;1.00;;;;;;4966613;28;20533;-81
2023/05/20 03:45:04;;;;;;;7.53;4.50;;;12.20;1.00;;;;;;4952821;29;20217;-79
2023/05/20 03:47:30;;;;;;;6.43;4.30;;;12.20;1.00;;;;;;4987201;28;20202;-82
2023/05/20 03:49:56;;;;;;;7.73;4.77;;;12.20;1.00;;;;;;4968353;28;20197;-82
2023/05/20 03:52:23;;;;;;;8.07;4.20;;;12.20;1.00;;;;;;4937082;29;20170;-81
2023/05/20 03:54:48;;;;;;;7.83;4.87;;;12.20;1.00;;;;;;4935925;29;20213;-81
2023/05/20 03:57:14;;;;;;;7.80;4.10;;;12.20;1.00;;;;;;4935746;29;20181;-80
2023/05/20 03:59:40;;;;;;;7.93;4.40;;;12.20;1.00;;;;;;4966432;28;20174;-81
2023/05/20 04:02:06;;;;;;;10.27;4.70;;;12.20;1.00;;;;;;4965914;28;20264;-81
2023/05/20 04:04:32;;;;;;;8.60;4.67;;;12.20;1.00;;;;;;4935420;29;20525;-82
2023/05/20 04:07:02;;;;;;;8.73;4.80;;;12.20;1.00;;;;;;4966273;28;20643;-81
2023/05/20 04:09:27;;;;;;;9.37;5.40;;;12.10;1.00;;;;;;4935381;29;20205;-81
2023/05/20 04:11:53;;;;;;;7.23;4.80;;;12.10;1.00;;;;;;4966050;28;20188;-82
2023/05/20 04:14:19;;;;;;;6.83;4.63;;;12.10;1.00;;;;;;4935612;29;20181;-81
2023/05/20 04:16:44;;;;;;;7.40;4.50;;;12.10;1.00;;;;;;4966907;28;20188;-81
2023/05/20 04:19:11;;;;;;;7.63;5.03;;;12.20;1.00;;;;;;4966905;28;20177;-81
2023/05/20 04:21:37;;;;;;;8.27;5.10;;;12.20;1.00;;;;;;4936511;29;20204;-81
2023/05/20 04:24:04;;;;;;;9.13;5.10;;;12.10;1.00;;;;;;4966508;28;20660;-80
2023/05/20 04:26:30;;;;;;;7.30;5.13;;;12.20;1.00;;;;;;4966898;28;20180;-81
2023/05/20 04:28:57;;;;;;;7.97;4.93;;;12.20;1.00;;;;;;4936463;29;20617;-81
2023/05/20 04:31:26;;;;;;;7.73;4.90;;;12.10;1.00;;;;;;4936020;29;20165;-81
2023/05/20 04:33:52;;;;;;;10.50;5.27;;;12.10;1.00;;;;;;4938795;29;20328;-81
2023/05/20 04:36:18;;;;;;;10.87;5.57;;;12.20;1.00;;;;;;4937461;29;20587;-81
2023/05/20 04:38:44;;;;;;;10.33;4.90;;;12.10;1.00;;;;;;4969890;28;20174;-81
2023/05/20 04:41:10;;;;;;;8.03;5.17;;;12.20;1.00;;;;;;4937660;29;20229;-81
2023/05/20 04:43:38;;;;;;;10.57;4.43;;;12.20;1.00;;;;;;4940511;29;20173;-80
2023/05/20 04:46:04;;;;;;;6.27;4.53;;;12.20;1.00;;;;;;4971052;28;20666;-81
2023/05/20 04:48:31;;;;;;;12.10;5.30;;;12.20;1.00;;;;;;4970465;28;20220;-83
2023/05/20 04:50:57;;;;;;;9.57;5.47;;;12.30;1.00;;;;;;4941850;29;20178;-79
2023/05/20 04:53:24;;;;;;;10.47;5.27;;;12.30;1.00;;;;;;4944080;29;20173;-80
2023/05/20 04:55:53;;;;;;;11.10;5.40;;;12.30;1.00;;;;;;4973941;28;20173;-81
2023/05/20 04:58:23;;;;;;;8.53;4.83;;;12.40;1.00;;;;;;4972739;28;20239;-81
2023/05/20 05:00:50;;;;;;;8.00;5.37;;;12.40;1.00;;;;;;4973820;28;20184;-81
2023/05/20 05:03:15;;;;;;;10.10;5.60;;;12.40;1.00;;;;;;4939811;29;20188;-80
2023/05/20 05:05:42;;;;;;;9.80;5.63;;;12.40;1.00;;;;;;4969985;28;20202;-81
2023/05/20 05:08:08;;;;;;;12.80;5.67;;;12.50;1.00;;;;;;4940304;29;20276;-81
2023/05/20 05:10:35;;;;;;;9.33;5.33;;;12.50;1.00;;;;;;4939624;29;20251;-81
2023/05/20 05:13:01;;;;;;;8.17;5.27;;;12.60;1.00;;;;;;4971085;28;20173;-81
2023/05/20 05:15:27;;;;;;;9.80;5.43;;;12.60;1.00;;;;;;4970636;28;20173;-81
2023/05/20 05:17:53;;;;;;;10.00;5.53;;;12.50;1.00;;;;;;4972464;28;20184;-81
2023/05/20 05:20:19;;;;;;;8.93;5.43;;;12.60;1.00;;;;;;4972577;28;20575;-81
2023/05/20 05:22:45;;;;;;;10.40;5.30;;;12.70;1.00;;;;;;4969405;28;20177;-81
2023/05/20 05:25:11;;;;;;;7.03;5.00;;;12.70;1.00;;;;;;4937710;29;20184;-81
2023/05/20 05:27:38;;;;;;;10.73;5.30;;;12.70;1.00;;;;;;4968520;28;20630;-81
2023/05/20 05:30:05;;;;;;;8.87;5.17;;;12.80;1.00;;;;;;4936265;29;20181;-81
2023/05/20 05:32:31;;;;;;;7.27;5.30;;;12.90;1.00;;;;;;4968652;28;20181;-81
2023/05/20 05:34:57;;;;;;;7.50;5.00;;;12.80;1.00;;;;;;4938097;29;20304;-81
2023/05/20 05:37:23;;;;;;;10.70;5.77;;;12.90;1.00;;;;;;4968597;28;20184;-81
2023/05/20 05:39:49;;;;;;;8.33;5.30;;;13.00;1.00;;;;;;4938531;29;20216;-80
2023/05/20 05:42:14;;;;;;;10.77;4.80;;;13.00;1.00;;;;;;4960948;28;20173;-80
2023/05/20 05:44:40;;;;;;;9.27;5.20;;;13.00;1.00;;;;;;4980061;28;20712;-81
2023/05/20 05:47:06;;;;;;;10.60;5.70;;;12.90;1.00;;;;;;4974471;28;20211;-81
2023/05/20 05:49:32;;;;;;;8.17;5.40;;;12.90;1.00;;;;;;4939197;29;20271;-81
2023/05/20 05:51:59;;;;;;;16.40;6.00;;;13.00;1.00;;;;;;4968195;28;20173;-80
2023/05/20 05:54:25;;;;;;;10.67;5.57;;;13.00;1.00;;;;;;4936115;29;20187;-81
2023/05/20 05:56:52;;;;;;;12.33;5.30;;;13.20;1.00;;;;;;4937663;29;20178;-81
2023/05/20 05:59:18;;;;;;;8.07;5.33;;;13.10;1.00;;;;;;4967998;28;20231;-80
2023/05/20 06:01:44;;;;;;;11.43;5.73;;;13.20;1.00;;;;;;4990042;28;20167;-81
2023/05/20 06:04:11;;;;;;;9.17;5.30;;;13.20;1.00;;;;;;4955946;29;20191;-81
2023/05/20 06:06:37;;;;;;;8.70;5.67;;;13.20;1.00;;;;;;4944907;29;20175;-81
2023/05/20 06:09:03;;;;;;;10.43;5.70;;;13.20;1.00;;;;;;4938987;29;20806;-80
2023/05/20 06:11:28;;;;;;;12.60;5.53;;;13.30;1.00;;;;;;4938475;29;20169;-80
2023/05/20 06:13:54;;;;;;;11.40;6.23;;;13.30;1.00;;;;;;4968488;28;20228;-80
2023/05/20 06:16:20;;;;;;;9.87;5.80;;;13.40;1.00;;;;;;4967886;28;20215;-80
2023/05/20 06:18:49;;;;;;;9.17;6.00;;;13.50;1.00;;;;;;4967734;28;20244;-81
2023/05/20 06:21:15;;;;;;;9.40;5.90;;;13.60;1.00;;;;;;4967941;28;20185;-82
2023/05/20 06:23:41;;;;;;;8.77;5.67;;;13.50;1.00;;;;;;4967682;28;20240;-82
2023/05/20 06:26:07;;;;;;;10.60;6.13;;;13.60;1.00;;;;;;4967526;28;20205;-81
2023/05/20 06:28:33;;;;;;;10.13;5.83;;;13.70;1.00;;;;;;4967261;28;20256;-81
2023/05/20 06:30:59;;;;;;;9.10;5.87;;;13.80;1.00;;;;;;4936824;29;20630;-82
2023/05/20 06:33:27;;;;;;;6.70;5.20;;;13.90;1.00;;;;;;4971323;28;20642;-81
2023/05/20 06:35:57;;;;;;;8.20;4.93;;;14.10;1.00;;;;;;4940118;29;20199;-82
2023/05/20 06:38:26;;;;;;;7.83;5.60;;;14.10;1.00;;;;;;4943003;29;20188;-81
2023/05/20 06:40:52;;;;;;;9.50;5.77;;;14.10;1.00;;;;;;4972329;28;20668;-83
2023/05/20 06:43:18;;;;;;;9.80;5.57;;;14.20;1.00;;;;;;4970647;28;20177;-82
2023/05/20 06:45:49;;;;;;;7.07;5.73;;;14.20;1.00;;;;;;4987273;28;20184;-82
2023/05/20 06:48:16;;;;;;;9.97;4.87;;;14.20;1.00;;;;;;4977192;28;20220;-82
2023/05/20 06:50:44;;;;;;;8.70;5.50;;;14.30;1.00;;;;;;4972552;28;20605;-81
2023/05/20 06:53:10;;;;;;;7.73;5.40;;;14.30;1.00;;;;;;4940109;29;20165;-82
2023/05/20 06:55:37;;;;;;;7.87;4.93;;;14.30;1.00;;;;;;4973743;28;20212;-81
2023/05/20 06:58:03;;;;;;;6.80;4.87;;;14.40;1.00;;;;;;4970393;28;20650;-81
2023/05/20 07:00:28;;;;;;;9.47;4.50;;;14.50;1.00;;;;;;4936445;29;20184;-83
2023/05/20 07:02:54;;;;;;;9.00;4.87;;;14.50;1.00;;;;;;4936362;29;20227;-82
2023/05/20 07:05:21;;;;;;;7.00;4.63;;;14.70;1.00;;;;;;4966937;28;20176;-83
2023/05/20 07:07:46;;;;;;;6.70;4.87;;;14.70;1.00;;;;;;4967013;28;20216;-83
2023/05/20 07:10:12;;;;;;;9.80;4.87;;;14.60;1.00;;;;;;4967060;28;20521;-83
2023/05/20 07:12:38;;;;;;;9.30;4.77;;;14.70;1.00;;;;;;4935077;29;20716;-81
2023/05/20 07:15:04;;;;;;;6.77;5.00;;;14.90;1.00;;;;;;4936317;29;20267;-82
2023/05/20 07:17:29;;;;;;;5.80;4.23;;;15.00;1.00;;;;;;4968470;28;20189;-82
2023/05/20 07:19:55;;;;;;;10.53;5.20;;;15.10;1.00;;;;;;4973266;28;20295;-82
2023/05/20 07:22:22;;;;;;;7.90;5.00;;;15.20;1.00;;;;;;4943513;29;20177;-80
2023/05/20 07:24:48;;;;;;;6.83;5.07;;;15.30;1.00;;;;;;4938900;29;20184;-82
2023/05/20 07:27:14;;;;;;;6.57;4.60;;;15.40;1.00;;;;;;4966964;28;20286;-83
2023/05/20 07:29:40;;;;;;;7.37;4.40;;;15.30;1.00;;;;;;4967101;28;20216;-80
2023/05/20 07:32:08;;;;;;;8.20;4.30;;;15.40;1.00;;;;;;4934769;29;20657;-83
2023/05/20 07:34:33;;;;;;;4.83;3.50;;;15.50;1.00;;;;;;4967108;28;20188;-81
2023/05/20 07:37:00;;;;;;;5.20;4.27;;;15.60;1.00;;;;;;4936118;29;20175;-82
2023/05/20 07:39:26;;;;;;;8.00;4.30;;;15.60;1.00;;;;;;4935818;29;20169;-82
2023/05/20 07:41:52;;;;;;;6.07;4.50;;;15.70;1.00;;;;;;4936161;29;20201;-82
2023/05/20 07:44:20;;;;;;;7.23;4.40;;;15.80;1.00;;;;;;4967783;28;20260;-83
2023/05/20 07:46:45;;;;;;;7.57;4.33;;;15.80;1.00;;;;;;4936292;29;20642;-81
2023/05/20 07:49:11;;;;;;;5.03;4.00;;;15.90;1.00;;;;;;4967167;28;20312;-83
2023/05/20 07:51:38;;;;;;;7.73;4.27;;;16.00;1.00;;;;;;4966811;28;20188;-82
2023/05/20 07:54:04;;;;;;;8.47;4.67;;;16.20;1.00;;;;;;4935605;29;20204;-82
2023/05/20 07:56:29;;;;;;;5.47;3.73;;;16.30;1.00;;;;;;4966469;28;20204;-83
2023/05/20 07:58:57;;;;;;;5.93;3.83;;;16.40;1.00;;;;;;4934499;29;20173;-81
2023/05/20 08:01:24;;;;;;;6.97;4.50;;;16.40;1.00;;;;;;4966671;28;20554;-84
2023/05/20 08:03:50;;;;;;;6.20;4.07;;;16.50;1.00;;;;;;4966518;28;20199;-83
2023/05/20 08:06:16;;;;;;;7.03;4.37;;;16.50;1.00;;;;;;4968805;28;20185;-83
2023/05/20 08:08:42;;;;;;;7.67;3.77;;;16.70;1.00;;;;;;4939713;29;20212;-83
2023/05/20 08:11:08;;;;;;;6.30;3.50;;;16.90;1.00;;;;;;4974118;28;20240;-82
2023/05/20 08:13:35;;;;;;;7.20;3.60;;;17.00;1.00;;;;;;4970317;28;20185;-83
2023/05/20 08:16:02;;;;;;;8.47;3.87;;;16.90;1.00;;;;;;4969997;28;20178;-83
2023/05/20 08:18:28;;;;;;;5.37;3.90;;;17.00;1.00;;;;;;4939272;29;20184;-84
2023/05/20 08:20:54;;;;;;;7.13;3.60;;;17.10;1.00;;;;;;4969938;28;20532;-83
2023/05/20 08:23:20;;;;;;;9.17;3.87;;;17.10;1.00;;;;;;4938670;29;20178;-82
2023/05/20 08:25:47;;;;;;;5.43;3.43;;;17.10;1.00;;;;;;4969917;28;20177;-83
2023/05/20 08:28:12;;;;;;;7.67;3.73;;;17.10;1.00;;;;;;4940513;29;20251;-83
2023/05/20 08:30:38;;;;;;;5.77;3.30;;;17.20;1.00;;;;;;4938964;29;20188;-82
2023/05/20 08:33:04;;;;;;;5.20;2.93;;;17.40;1.00;;;;;;4972420;28;20182;-82
2023/05/20 08:35:30;;;;;;;6.90;3.40;;;17.50;1.00;;;;;;4988792;28;20181;-83
2023/05/20 08:37:57;;;;;;;13.60;3.73;;;17.40;1.00;;;;;;4959518;28;20221;-83
2023/05/20 08:40:23;;;;;;;7.93;3.70;;;17.30;1.00;;;;;;4947877;29;20202;-83
2023/05/20 08:42:51;;;;;;;7.30;3.30;;;17.50;1.00;;;;;;4979906;28;20540;-83
2023/05/20 08:45:19;;;;;;;8.27;3.40;;;17.40;1.00;;;;;;4977919;28;20267;-83
2023/05/20 08:47:46;;;;;;;7.23;3.57;;;17.40;1.00;;;;;;4971731;28;20205;-83
2023/05/20 08:50:15;;;;;;;6.30;3.17;;;17.40;1.00;;;;;;4970146;28;20189;-82
2023/05/20 08:52:46;;;;;;;4.33;2.97;;;17.50;1.00;;;;;;4975502;28;20154;-83
2023/05/20 08:55:21;;;;;;;5.37;3.23;;;17.60;1.00;;;;;;4993740;28;20180;-83
2023/05/20 08:57:50;;;;;;;4.93;2.90;;;17.60;1.00;;;;;;4955035;29;20171;-83
2023/05/20 09:00:17;;;;;;;5.03;3.30;;;17.70;99.90;;;;;;4979979;28;20235;-82
2023/05/20 09:02:46;;;;;;;4.63;3.17;;;17.70;99.90;;;;;;4940150;29;20276;-84
2023/05/20 09:05:14;;;;;;;8.77;2.97;;;17.60;99.90;;;;;;4938479;29;20250;-82
2023/05/20 09:07:42;;;;;;;6.53;3.13;;;17.70;99.90;;;;;;4937635;29;20267;-82
2023/05/20 09:10:08;;;;;;;4.80;2.43;;;17.70;99.90;;;;;;4937633;29;20215;-82
2023/05/20 09:12:35;;;;;;;5.60;3.17;;;17.70;99.90;;;;;;4937442;29;20182;-83
2023/05/20 09:15:01;;;;;;;4.57;2.97;;;17.70;99.90;;;;;;4938498;29;20211;-82
2023/05/20 09:17:27;;;;;;;7.60;3.20;;;17.80;1.00;;;;;;4968757;28;20180;-82
2023/05/20 09:19:53;;;;;;;7.63;3.60;;;18.00;1.00;;;;;;4969502;28;20577;-83
2023/05/20 09:22:27;;;;;;;7.47;3.70;;;18.10;99.90;;;;;;4969398;28;20597;-83
2023/05/20 09:24:54;;;;;;;6.80;3.37;;;18.10;99.90;;;;;;4972695;28;20626;-82
2023/05/20 09:27:21;;;;;;;6.67;3.20;;;18.20;99.90;;;;;;4941903;29;20209;-82
2023/05/20 09:29:50;;;;;;;6.60;3.40;;;18.10;99.90;;;;;;4937610;29;20251;-82
2023/05/20 09:32:19;;;;;;;6.40;3.03;;;18.40;99.90;;;;;;4970893;28;20174;-82
2023/05/20 09:34:46;;;;;;;5.97;2.90;;;18.50;99.90;;;;;;4939622;29;20186;-82
2023/05/20 09:37:16;;;;;;;7.97;3.00;;;18.50;99.90;;;;;;4976782;28;20313;-82
2023/05/20 09:40:04;;;;;;;4.27;2.10;;;18.60;99.90;;;;;;4942575;29;20218;-82
2023/05/20 09:42:43;;;;;;;7.93;3.20;;;18.30;99.90;;;;;;4977069;28;20238;-82
2023/05/20 09:45:09;;;;;;;5.33;2.67;;;18.30;99.90;;;;;;4943824;29;20169;-81
2023/05/20 09:47:39;;;;;;;7.10;3.50;;;18.30;99.90;;;;;;4976879;28;20275;-82
2023/05/20 09:50:09;;;;;;;7.00;3.20;;;18.50;99.90;;;;;;4981268;28;20716;-81
2023/05/20 09:52:37;;;;;;;24.43;4.23;;;18.60;99.90;;;;;;4949024;29;20185;-83
2023/05/20 09:55:05;;;;;;;4.47;2.70;;;18.70;99.90;;;;;;4982241;28;20182;-82
2023/05/20 09:57:34;;;;;;;8.53;3.43;;;18.60;99.90;;;;;;4952562;29;20190;-82
2023/05/20 10:00:05;;;;;;;8.57;2.77;;;18.80;99.90;;;;;;4973607;28;20193;-83
2023/05/20 10:02:32;;;;;;;5.63;2.70;;;19.00;99.90;;;;;;4940504;29;20173;-82
2023/05/20 10:05:03;;;;;;;8.23;3.20;;;19.00;99.90;;;;;;4971539;28;20198;-83
2023/05/20 10:07:52;;;;;;;5.73;2.73;;;19.00;99.90;;;;;;4969699;28;20200;-82
2023/05/20 10:10:27;;;;;;;4.40;2.67;;;19.00;99.90;;;;;;4969314;28;20216;-84
2023/05/20 10:12:58;;;;;;;5.33;2.83;;;18.80;99.90;;;;;;4937883;29;20172;-81
2023/05/20 10:15:41;;;;;;;11.00;3.17;;;18.80;99.90;;;;;;4968288;28;20172;-83
2023/05/20 10:18:48;;;;;;;4.07;2.40;;;19.00;99.90;;;;;;4968401;28;20286;-83
2023/05/20 10:21:16;;;;;;;4.40;2.57;;;19.10;99.90;;;;;;4931436;29;20198;-83
2023/05/20 10:23:44;;;;;;;5.30;2.43;;;19.20;99.90;;;;;;4967947;28;20588;-82
2023/05/20 10:26:10;;;;;;;5.50;2.90;;;19.30;99.90;;;;;;4936007;29;20281;-81
2023/05/20 10:28:39;;;;;;;4.60;2.80;;;19.20;99.90;;;;;;4967222;28;20212;-82
2023/05/20 10:31:15;;;;;;;4.83;2.70;;;19.20;99.90;;;;;;4937269;29;20183;-83
2023/05/20 10:33:43;;;;;;;6.67;2.73;;;19.30;99.90;;;;;;4967726;28;20655;-84
2023/05/20 10:36:09;;;;;;;6.50;3.00;;;19.20;99.90;;;;;;4968206;28;20176;-84
2023/05/20 10:38:34;;;;;;;7.10;3.03;;;19.20;99.90;;;;;;4937052;29;20168;-83
2023/05/20 10:41:12;;;;;;;8.47;3.17;;;19.20;99.90;;;;;;4968032;28;20178;-83
2023/05/20 10:43:38;;;;;;;3.93;3.00;;;19.10;99.90;;;;;;4968223;28;20259;-84
2023/05/20 10:46:03;;;;;;;5.93;3.30;;;19.20;99.90;;;;;;4937151;29;20255;-83
2023/05/20 10:48:31;;;;;;;8.57;3.47;;;19.20;99.90;;;;;;4967593;28;20209;-82
2023/05/20 10:51:03;;;;;;;4.37;2.67;;;19.10;99.90;;;;;;4968080;28;20177;-83
2023/05/20 10:53:41;;;;;;;9.27;3.47;;;19.10;99.90;;;;;;4967889;28;20597;-81
2023/05/20 10:56:21;;;;;;;5.07;3.00;;;19.00;99.90;;;;;;4936903;29;20177;-81
2023/05/20 10:58:47;;;;;;;5.40;2.70;;;19.10;99.90;;;;;;4967450;28;20610;-81
2023/05/20 11:01:13;;;;;;;7.03;2.87;;;19.20;99.90;;;;;;4937424;29;20656;-82
2023/05/20 11:03:40;;;;;;;5.33;2.90;;;19.30;99.90;;;;;;4935416;29;20208;-83
2023/05/20 11:06:13;;;;;;;5.40;2.70;;;19.40;99.90;;;;;;4967613;28;20274;-82
2023/05/20 11:08:39;;;;;;;5.00;3.00;;;19.40;99.90;;;;;;4935415;29;20298;-83
2023/05/20 11:11:05;;;;;;;6.63;3.00;;;19.40;99.90;;;;;;4938234;29;20177;-81
2023/05/20 11:13:31;;;;;;;6.37;2.80;;;19.50;99.90;;;;;;4967627;28;20234;-83
2023/05/20 11:15:57;;;;;;;5.60;2.63;;;19.50;99.90;;;;;;4937173;29;20173;-83
2023/05/20 11:18:28;;;;;;;4.87;2.60;;;19.70;99.90;;;;;;4967959;28;20173;-83
2023/05/20 11:20:55;;;;;;;4.13;2.90;;;19.50;99.90;;;;;;4937102;29;20323;-84
2023/05/20 11:23:22;;;;;;;5.13;3.03;;;19.50;99.90;;;;;;4967819;28;20181;-83
2023/05/20 11:25:50;;;;;;;6.20;2.93;;;19.60;99.90;;;;;;4968005;28;20179;-81
2023/05/20 11:28:20;;;;;;;4.60;2.77;;;19.70;99.90;;;;;;4969130;28;20219;-83
2023/05/20 11:30:46;;;;;;;4.97;3.30;;;19.80;99.90;;;;;;4969588;28;20238;-82
2023/05/20 11:33:14;;;;;;;5.83;2.80;;;19.60;99.90;;;;;;4971754;28;20192;-82
2023/05/20 11:35:51;;;;;;;7.23;2.93;;;19.70;99.90;;;;;;4968531;28;20176;-82
2023/05/20 11:38:18;;;;;;;4.60;2.60;;;20.00;99.90;;;;;;4937437;29;20195;-83
2023/05/20 11:40:54;;;;;;;5.77;3.00;;;20.10;92.50;;;;;;4937333;29;20219;-82
2023/05/20 11:43:22;;;;;;;7.17;3.17;;;20.30;99.90;;;;;;4971183;28;20173;-83
2023/05/20 11:45:54;;;;;;;6.33;3.00;;;20.30;54.30;;;;;;4971342;28;20172;-81
2023/05/20 11:48:20;;;;;;;9.27;3.37;;;20.30;99.90;;;;;;4990028;28;20269;-81
2023/05/20 11:50:47;;;;;;;7.33;3.37;;;20.40;99.90;;;;;;4994022;28;20180;-81
2023/05/20 11:53:17;;;;;;;7.30;3.37;;;20.40;56.90;;;;;;4975654;28;20173;-82
2023/05/20 11:55:50;;;;;;;6.23;3.00;;;20.40;36.50;;;;;;4945272;29;20225;-83
2023/05/20 11:58:20;;;;;;;6.57;2.63;;;20.50;99.90;;;;;;4942318;29;20299;-82
2023/05/20 12:00:46;;;;;;;5.67;2.67;;;20.80;99.90;;;;;;4970622;28;20202;-84
2023/05/20 12:03:11;;;;;;;3.63;2.50;;;20.80;1.40;;;;;;4970549;28;20228;-83
2023/05/20 12:05:38;;;;;;;8.57;3.23;;;20.90;1.00;;;;;;4970281;28;20182;-84
2023/05/20 12:08:05;;;;;;;7.20;3.27;;;20.90;1.00;;;;;;4971033;28;20207;-83
2023/05/20 12:10:31;;;;;;;7.10;3.03;;;20.60;7.40;;;;;;4940636;29;20232;-83
2023/05/20 12:12:58;;;;;;;4.00;3.00;;;20.60;1.00;;;;;;4970564;28;20174;-81
2023/05/20 12:15:23;;;;;;;5.97;3.03;;;20.50;1.00;;;;;;4938274;29;20177;-82
2023/05/20 12:17:52;;;;;;;7.90;3.03;;;20.30;99.90;;;;;;4940467;29;20180;-82
2023/05/20 12:20:21;;;;;;;3.73;2.87;;;20.40;99.90;;;;;;4939616;29;20609;-82
2023/05/20 12:22:49;;;;;;;5.20;2.57;;;20.30;99.90;;;;;;4940256;29;20196;-81
2023/05/20 12:25:18;;;;;;;6.60;3.40;;;20.50;99.90;;;;;;4937870;29;20185;-82
2023/05/20 12:27:49;;;;;;;6.23;2.90;;;20.60;99.90;;;;;;4939582;29;20228;-82
2023/05/20 12:30:20;;;;;;;6.67;2.80;;;20.60;99.90;;;;;;4938911;29;20693;-84
2023/05/20 12:32:51;;;;;;;6.07;3.10;;;20.30;99.90;;;;;;4969695;28;20184;-83
2023/05/20 12:35:34;;;;;;;5.53;3.10;;;20.30;99.90;;;;;;4939751;29;20184;-81
2023/05/20 12:38:00;;;;;;;4.17;2.87;;;20.30;99.90;;;;;;4939955;29;20189;-82
2023/05/20 12:40:26;;;;;;;4.37;3.07;;;20.30;99.90;;;;;;4939960;29;20192;-83
2023/05/20 12:42:51;;;;;;;6.73;3.43;;;20.40;99.90;;;;;;4970147;28;20271;-82
2023/05/20 12:45:17;;;;;;;5.00;2.80;;;20.40;99.90;;;;;;4939287;29;20223;-81
2023/05/20 12:47:47;;;;;;;4.90;3.00;;;20.40;99.90;;;;;;4939567;29;20674;-82
2023/05/20 12:50:13;;;;;;;4.03;2.43;;;20.50;99.90;;;;;;4938896;29;20188;-84
2023/05/20 12:52:38;;;;;;;4.00;2.87;;;20.30;99.90;;;;;;4936339;29;20181;-80
2023/05/20 12:55:12;;;;;;;5.40;2.90;;;20.10;99.90;;;;;;4939226;29;20187;-83